sensor_id;sensor_type;location;lat;lon;timestamp;temperature;humidity
51783;DHT22;37845;53.196;5.638;2023-02-12T00:02:17;6.10;99.90
51783;DHT22;37845;53.196;5.638;2023-02-12T00:04:43;5.60;99.90
51783;DHT22;37845;53.196;5.638;2023-02-12T00:07:09;5.20;99.90
51783;DHT22;37845;53.196;5.638;2023-02-12T00:09:38;4.40;99.90
51783;DHT22;37845;53.196;5.638;2023-02-12T00:12:03;4.40;99.90
51783;DHT22;37845;53.196;5.638;2023-02-12T00:14:29;4.40;99.90
51783;DHT22;37845;53.196;5.638;2023-02-12T00:16:55;4.90;99.90
51783;DHT22;37845;53.196;5.638;2023-02-12T00:19:20;4.40;99.90
51783;DHT22;37845;53.196;5.638;2023-02-12T00:21:46;4.40;99.90
51783;DHT22;37845;53.196;5.638;2023-02-12T00:24:11;4.50;99.90
51783;DHT22;37845;53.196;5.638;2023-02-12T00:26:38;6.20;99.90
51783;DHT22;37845;53.196;5.638;2023-02-12T00:29:03;5.90;99.90
51783;DHT22;37845;53.196;5.638;2023-02-12T00:31:29;4.40;99.90
51783;DHT22;37845;53.196;5.638;2023-02-12T00:33:55;5.90;99.90
51783;DHT22;37845;53.196;5.638;2023-02-12T00:36:23;4.50;99.90
51783;DHT22;37845;53.196;5.638;2023-02-12T00:38:50;4.40;99.90
51783;DHT22;37845;53.196;5.638;2023-02-12T00:41:15;4.40;99.90
51783;DHT22;37845;53.196;5.638;2023-02-12T00:43:41;4.30;99.90
51783;DHT22;37845;53.196;5.638;2023-02-12T00:46:07;4.30;99.90
51783;DHT22;37845;53.196;5.638;2023-02-12T00:48:33;4.70;99.90
51783;DHT22;37845;53.196;5.638;2023-02-12T00:50:59;5.10;99.90
51783;DHT22;37845;53.196;5.638;2023-02-12T00:53:25;5.40;99.90
51783;DHT22;37845;53.196;5.638;2023-02-12T00:55:51;5.60;99.90
51783;DHT22;37845;53.196;5.638;2023-02-12T00:58:16;4.20;99.90
51783;DHT22;37845;53.196;5.638;2023-02-12T01:00:42;4.20;99.90
51783;DHT22;37845;53.196;5.638;2023-02-12T01:03:08;4.20;99.90
51783;DHT22;37845;53.196;5.638;2023-02-12T01:05:34;5.20;99.90
51783;DHT22;37845;53.196;5.638;2023-02-12T01:08:00;5.40;99.90
51783;DHT22;37845;53.196;5.638;2023-02-12T01:10:25;4.10;99.90
51783;DHT22;37845;53.196;5.638;2023-02-12T01:12:51;5.00;99.90
51783;DHT22;37845;53.196;5.638;2023-02-12T01:15:17;5.20;99.90
51783;DHT22;37845;53.196;5.638;2023-02-12T01:17:43;4.10;99.90
51783;DHT22;37845;53.196;5.638;2023-02-12T01:20:10;4.80;99.90
51783;DHT22;37845;53.196;5.638;2023-02-12T01:22:36;4.00;99.90
51783;DHT22;37845;53.196;5.638;2023-02-12T01:25:02;3.90;99.90
51783;DHT22;37845;53.196;5.638;2023-02-12T01:27:28;4.00;99.90
51783;DHT22;37845;53.196;5.638;2023-02-12T01:29:54;3.90;99.90
51783;DHT22;37845;53.196;5.638;2023-02-12T01:32:19;3.80;99.90
51783;DHT22;37845;53.196;5.638;2023-02-12T01:34:45;4.70;99.90
51783;DHT22;37845;53.196;5.638;2023-02-12T01:37:10;4.30;99.90
51783;DHT22;37845;53.196;5.638;2023-02-12T01:39:36;4.90;99.90
51783;DHT22;37845;53.196;5.638;2023-02-12T01:42:02;3.80;99.90
51783;DHT22;37845;53.196;5.638;2023-02-12T01:44:29;3.80;99.90
51783;DHT22;37845;53.196;5.638;2023-02-12T01:46:56;3.80;99.90
51783;DHT22;37845;53.196;5.638;2023-02-12T01:51:58;3.80;99.90
51783;DHT22;37845;53.196;5.638;2023-02-12T01:54:25;4.70;99.90
51783;DHT22;37845;53.196;5.638;2023-02-12T01:56:51;3.80;99.90
51783;DHT22;37845;53.196;5.638;2023-02-12T01:59:17;3.90;99.90
51783;DHT22;37845;53.196;5.638;2023-02-12T02:01:43;5.10;99.90
51783;DHT22;37845;53.196;5.638;2023-02-12T02:04:11;4.80;99.90
51783;DHT22;37845;53.196;5.638;2023-02-12T02:06:40;3.80;99.90
51783;DHT22;37845;53.196;5.638;2023-02-12T02:09:08;3.80;99.90
51783;DHT22;37845;53.196;5.638;2023-02-12T02:11:34;5.70;99.90
51783;DHT22;37845;53.196;5.638;2023-02-12T02:14:18;5.10;99.90
51783;DHT22;37845;53.196;5.638;2023-02-12T02:19:49;3.90;99.90
51783;DHT22;37845;53.196;5.638;2023-02-12T02:41:01;3.70;99.90
51783;DHT22;37845;53.196;5.638;2023-02-12T02:43:28;3.70;99.90
51783;DHT22;37845;53.196;5.638;2023-02-12T02:46:06;3.70;99.90
51783;DHT22;37845;53.196;5.638;2023-02-12T02:48:34;4.50;99.90
51783;DHT22;37845;53.196;5.638;2023-02-12T02:51:05;4.40;99.90
51783;DHT22;37845;53.196;5.638;2023-02-12T02:53:38;3.70;99.90
51783;DHT22;37845;53.196;5.638;2023-02-12T02:56:05;3.70;99.90
51783;DHT22;37845;53.196;5.638;2023-02-12T02:58:34;3.70;99.90
51783;DHT22;37845;53.196;5.638;2023-02-12T03:01:05;3.70;99.90
51783;DHT22;37845;53.196;5.638;2023-02-12T03:03:33;3.70;99.90
51783;DHT22;37845;53.196;5.638;2023-02-12T03:06:08;4.10;99.90
51783;DHT22;37845;53.196;5.638;2023-02-12T03:08:36;3.70;99.90
51783;DHT22;37845;53.196;5.638;2023-02-12T03:11:10;4.70;99.90
51783;DHT22;37845;53.196;5.638;2023-02-12T03:16:20;3.70;99.90
51783;DHT22;37845;53.196;5.638;2023-02-12T03:21:27;3.70;99.90
51783;DHT22;37845;53.196;5.638;2023-02-12T03:23:57;3.60;99.90
51783;DHT22;37845;53.196;5.638;2023-02-12T03:26:27;3.50;99.90
51783;DHT22;37845;53.196;5.638;2023-02-12T03:28:55;3.50;99.90
51783;DHT22;37845;53.196;5.638;2023-02-12T03:36:19;3.60;99.90
51783;DHT22;37845;53.196;5.638;2023-02-12T03:38:48;3.50;99.90
51783;DHT22;37845;53.196;5.638;2023-02-12T03:43:54;4.20;99.90
51783;DHT22;37845;53.196;5.638;2023-02-12T03:46:26;3.30;99.90
51783;DHT22;37845;53.196;5.638;2023-02-12T03:53:51;3.40;99.90
51783;DHT22;37845;53.196;5.638;2023-02-12T03:56:36;3.30;99.90
51783;DHT22;37845;53.196;5.638;2023-02-12T03:59:03;3.40;99.90
51783;DHT22;37845;53.196;5.638;2023-02-12T04:01:30;3.80;99.90
51783;DHT22;37845;53.196;5.638;2023-02-12T04:03:56;4.20;99.90
51783;DHT22;37845;53.196;5.638;2023-02-12T04:06:24;3.40;99.90
51783;DHT22;37845;53.196;5.638;2023-02-12T04:08:53;4.20;99.90
51783;DHT22;37845;53.196;5.638;2023-02-12T04:14:23;3.30;99.90
51783;DHT22;37845;53.196;5.638;2023-02-12T04:17:02;3.20;99.90
51783;DHT22;37845;53.196;5.638;2023-02-12T04:27:21;3.40;99.90
51783;DHT22;37845;53.196;5.638;2023-02-12T04:29:56;3.40;99.90
51783;DHT22;37845;53.196;5.638;2023-02-12T04:32:25;3.40;99.90
51783;DHT22;37845;53.196;5.638;2023-02-12T04:34:56;3.70;99.90
51783;DHT22;37845;53.196;5.638;2023-02-12T04:37:25;3.40;99.90
51783;DHT22;37845;53.196;5.638;2023-02-12T04:39:53;4.00;99.90
51783;DHT22;37845;53.196;5.638;2023-02-12T04:42:19;4.80;99.90
51783;DHT22;37845;53.196;5.638;2023-02-12T04:44:44;4.40;99.90
51783;DHT22;37845;53.196;5.638;2023-02-12T04:47:11;4.30;99.90
51783;DHT22;37845;53.196;5.638;2023-02-12T04:49:36;5.10;99.90
51783;DHT22;37845;53.196;5.638;2023-02-12T04:52:02;4.80;99.90
51783;DHT22;37845;53.196;5.638;2023-02-12T04:54:28;4.30;99.90
51783;DHT22;37845;53.196;5.638;2023-02-12T04:56:53;3.30;99.90
51783;DHT22;37845;53.196;5.638;2023-02-12T04:59:19;3.30;99.90
51783;DHT22;37845;53.196;5.638;2023-02-12T05:01:45;3.40;99.90
51783;DHT22;37845;53.196;5.638;2023-02-12T05:04:11;4.50;99.90
51783;DHT22;37845;53.196;5.638;2023-02-12T05:06:38;4.70;99.90
51783;DHT22;37845;53.196;5.638;2023-02-12T05:09:05;3.40;99.90
51783;DHT22;37845;53.196;5.638;2023-02-12T05:11:30;3.30;99.90
51783;DHT22;37845;53.196;5.638;2023-02-12T05:13:56;5.00;99.90
51783;DHT22;37845;53.196;5.638;2023-02-12T05:16:22;4.50;99.90
51783;DHT22;37845;53.196;5.638;2023-02-12T05:18:48;3.30;99.90
51783;DHT22;37845;53.196;5.638;2023-02-12T05:21:13;3.60;99.90
51783;DHT22;37845;53.196;5.638;2023-02-12T05:23:39;4.10;99.90
51783;DHT22;37845;53.196;5.638;2023-02-12T05:26:06;4.00;99.90
51783;DHT22;37845;53.196;5.638;2023-02-12T05:28:32;3.40;99.90
51783;DHT22;37845;53.196;5.638;2023-02-12T05:30:59;3.50;99.90
51783;DHT22;37845;53.196;5.638;2023-02-12T05:33:24;3.90;99.90
51783;DHT22;37845;53.196;5.638;2023-02-12T05:35:50;4.80;99.90
51783;DHT22;37845;53.196;5.638;2023-02-12T05:38:15;3.70;99.90
51783;DHT22;37845;53.196;5.638;2023-02-12T05:40:41;5.00;99.90
51783;DHT22;37845;53.196;5.638;2023-02-12T05:43:07;5.10;99.90
51783;DHT22;37845;53.196;5.638;2023-02-12T05:45:33;3.80;99.90
51783;DHT22;37845;53.196;5.638;2023-02-12T05:47:58;5.40;99.90
51783;DHT22;37845;53.196;5.638;2023-02-12T05:50:24;3.70;99.90
51783;DHT22;37845;53.196;5.638;2023-02-12T05:52:50;5.10;99.90
51783;DHT22;37845;53.196;5.638;2023-02-12T05:55:15;3.70;99.90
51783;DHT22;37845;53.196;5.638;2023-02-12T05:57:41;4.50;99.90
51783;DHT22;37845;53.196;5.638;2023-02-12T06:00:07;3.80;99.90
51783;DHT22;37845;53.196;5.638;2023-02-12T06:02:33;3.90;99.90
51783;DHT22;37845;53.196;5.638;2023-02-12T06:04:58;4.80;99.90
51783;DHT22;37845;53.196;5.638;2023-02-12T06:07:24;5.60;99.90
51783;DHT22;37845;53.196;5.638;2023-02-12T06:09:50;4.00;99.90
51783;DHT22;37845;53.196;5.638;2023-02-12T06:12:15;4.60;99.90
51783;DHT22;37845;53.196;5.638;2023-02-12T06:14:41;4.30;99.90
51783;DHT22;37845;53.196;5.638;2023-02-12T06:17:07;4.90;99.90
51783;DHT22;37845;53.196;5.638;2023-02-12T06:19:33;4.40;99.90
51783;DHT22;37845;53.196;5.638;2023-02-12T06:21:59;4.50;99.90
51783;DHT22;37845;53.196;5.638;2023-02-12T06:24:24;4.60;99.90
51783;DHT22;37845;53.196;5.638;2023-02-12T06:26:50;4.70;99.90
51783;DHT22;37845;53.196;5.638;2023-02-12T06:29:16;5.10;99.90
51783;DHT22;37845;53.196;5.638;2023-02-12T06:31:42;4.70;99.90
51783;DHT22;37845;53.196;5.638;2023-02-12T06:34:08;4.80;99.90
51783;DHT22;37845;53.196;5.638;2023-02-12T06:36:35;4.80;99.90
51783;DHT22;37845;53.196;5.638;2023-02-12T06:39:01;4.90;99.90
51783;DHT22;37845;53.196;5.638;2023-02-12T06:41:27;4.80;99.90
51783;DHT22;37845;53.196;5.638;2023-02-12T06:43:53;5.00;99.90
51783;DHT22;37845;53.196;5.638;2023-02-12T06:46:18;5.00;99.90
51783;DHT22;37845;53.196;5.638;2023-02-12T06:48:44;6.40;99.90
51783;DHT22;37845;53.196;5.638;2023-02-12T06:51:12;5.10;99.90
51783;DHT22;37845;53.196;5.638;2023-02-12T06:53:38;5.10;99.90
51783;DHT22;37845;53.196;5.638;2023-02-12T06:56:05;6.00;99.90
51783;DHT22;37845;53.196;5.638;2023-02-12T06:58:31;5.20;99.90
51783;DHT22;37845;53.196;5.638;2023-02-12T07:01:06;6.20;99.90
51783;DHT22;37845;53.196;5.638;2023-02-12T07:03:32;6.00;99.90
51783;DHT22;37845;53.196;5.638;2023-02-12T07:05:57;5.30;99.90
51783;DHT22;37845;53.196;5.638;2023-02-12T07:08:23;5.30;99.90
51783;DHT22;37845;53.196;5.638;2023-02-12T07:10:48;4.60;99.90
51783;DHT22;37845;53.196;5.638;2023-02-12T07:13:14;5.50;99.90
51783;DHT22;37845;53.196;5.638;2023-02-12T07:15:40;5.40;99.90
51783;DHT22;37845;53.196;5.638;2023-02-12T07:18:05;5.40;99.90
51783;DHT22;37845;53.196;5.638;2023-02-12T07:20:31;5.40;99.90
51783;DHT22;37845;53.196;5.638;2023-02-12T07:22:57;6.30;99.90
51783;DHT22;37845;53.196;5.638;2023-02-12T07:25:22;5.40;99.90
51783;DHT22;37845;53.196;5.638;2023-02-12T07:27:48;5.50;99.90
51783;DHT22;37845;53.196;5.638;2023-02-12T07:30:14;5.40;99.90
51783;DHT22;37845;53.196;5.638;2023-02-12T07:32:39;5.50;99.90
51783;DHT22;37845;53.196;5.638;2023-02-12T07:35:05;5.90;99.90
51783;DHT22;37845;53.196;5.638;2023-02-12T07:37:31;5.50;99.90
51783;DHT22;37845;53.196;5.638;2023-02-12T07:39:57;4.60;99.90
51783;DHT22;37845;53.196;5.638;2023-02-12T07:42:23;5.50;99.90
51783;DHT22;37845;53.196;5.638;2023-02-12T07:44:49;6.50;99.90
51783;DHT22;37845;53.196;5.638;2023-02-12T07:47:15;5.90;99.90
51783;DHT22;37845;53.196;5.638;2023-02-12T07:49:40;5.50;99.90
51783;DHT22;37845;53.196;5.638;2023-02-12T07:52:07;5.60;99.90
51783;DHT22;37845;53.196;5.638;2023-02-12T07:54:32;5.50;99.90
51783;DHT22;37845;53.196;5.638;2023-02-12T07:56:58;5.60;99.90
51783;DHT22;37845;53.196;5.638;2023-02-12T07:59:25;5.60;99.90
51783;DHT22;37845;53.196;5.638;2023-02-12T08:01:51;5.70;99.90
51783;DHT22;37845;53.196;5.638;2023-02-12T08:04:18;5.90;99.90
51783;DHT22;37845;53.196;5.638;2023-02-12T08:06:45;5.70;99.90
51783;DHT22;37845;53.196;5.638;2023-02-12T08:09:12;5.70;99.90
51783;DHT22;37845;53.196;5.638;2023-02-12T08:11:39;5.70;99.90
51783;DHT22;37845;53.196;5.638;2023-02-12T08:14:05;5.80;99.90
51783;DHT22;37845;53.196;5.638;2023-02-12T08:16:30;5.70;99.90
51783;DHT22;37845;53.196;5.638;2023-02-12T08:18:56;5.80;99.90
51783;DHT22;37845;53.196;5.638;2023-02-12T08:21:23;5.80;99.90
51783;DHT22;37845;53.196;5.638;2023-02-12T08:23:49;5.90;99.90
51783;DHT22;37845;53.196;5.638;2023-02-12T08:28:45;5.90;99.90
51783;DHT22;37845;53.196;5.638;2023-02-12T08:31:12;5.90;99.90
51783;DHT22;37845;53.196;5.638;2023-02-12T08:33:38;5.90;99.90
51783;DHT22;37845;53.196;5.638;2023-02-12T08:36:04;6.20;99.90
51783;DHT22;37845;53.196;5.638;2023-02-12T08:38:31;6.00;99.90
51783;DHT22;37845;53.196;5.638;2023-02-12T08:40:59;6.00;99.90
51783;DHT22;37845;53.196;5.638;2023-02-12T08:43:25;6.90;99.90
51783;DHT22;37845;53.196;5.638;2023-02-12T08:45:51;6.70;99.90
51783;DHT22;37845;53.196;5.638;2023-02-12T08:48:17;6.30;99.90
51783;DHT22;37845;53.196;5.638;2023-02-12T08:50:45;6.20;99.90
51783;DHT22;37845;53.196;5.638;2023-02-12T08:53:11;6.20;99.90
51783;DHT22;37845;53.196;5.638;2023-02-12T08:55:36;7.00;99.90
51783;DHT22;37845;53.196;5.638;2023-02-12T08:58:02;6.30;99.90
51783;DHT22;37845;53.196;5.638;2023-02-12T09:00:28;6.30;99.90
51783;DHT22;37845;53.196;5.638;2023-02-12T09:02:53;6.30;99.90
51783;DHT22;37845;53.196;5.638;2023-02-12T09:05:19;7.30;99.90
51783;DHT22;37845;53.196;5.638;2023-02-12T09:07:44;6.30;99.90
51783;DHT22;37845;53.196;5.638;2023-02-12T09:10:10;6.40;99.90
51783;DHT22;37845;53.196;5.638;2023-02-12T09:12:36;6.40;99.90
51783;DHT22;37845;53.196;5.638;2023-02-12T09:15:01;6.40;99.90
51783;DHT22;37845;53.196;5.638;2023-02-12T09:17:27;6.50;99.90
51783;DHT22;37845;53.196;5.638;2023-02-12T09:19:54;6.50;99.90
51783;DHT22;37845;53.196;5.638;2023-02-12T09:22:20;7.20;99.90
51783;DHT22;37845;53.196;5.638;2023-02-12T09:24:46;7.40;99.90
51783;DHT22;37845;53.196;5.638;2023-02-12T09:27:12;7.20;99.90
51783;DHT22;37845;53.196;5.638;2023-02-12T09:29:37;6.50;99.90
51783;DHT22;37845;53.196;5.638;2023-02-12T09:32:03;6.60;99.90
51783;DHT22;37845;53.196;5.638;2023-02-12T09:34:34;6.60;99.90
51783;DHT22;37845;53.196;5.638;2023-02-12T09:37:00;6.60;99.90
51783;DHT22;37845;53.196;5.638;2023-02-12T09:39:26;6.60;99.90
51783;DHT22;37845;53.196;5.638;2023-02-12T09:44:49;6.70;99.90
51783;DHT22;37845;53.196;5.638;2023-02-12T09:47:22;6.70;99.90
51783;DHT22;37845;53.196;5.638;2023-02-12T09:49:55;6.70;99.90
51783;DHT22;37845;53.196;5.638;2023-02-12T09:52:26;6.80;99.90
51783;DHT22;37845;53.196;5.638;2023-02-12T09:54:52;7.70;99.90
51783;DHT22;37845;53.196;5.638;2023-02-12T09:57:28;6.80;99.90
51783;DHT22;37845;53.196;5.638;2023-02-12T09:59:57;6.90;99.90
51783;DHT22;37845;53.196;5.638;2023-02-12T10:02:23;6.80;99.90
51783;DHT22;37845;53.196;5.638;2023-02-12T10:04:49;6.90;99.90
51783;DHT22;37845;53.196;5.638;2023-02-12T10:10:02;7.00;99.90
51783;DHT22;37845;53.196;5.638;2023-02-12T10:12:34;7.00;99.90
51783;DHT22;37845;53.196;5.638;2023-02-12T10:23:02;7.00;99.90
51783;DHT22;37845;53.196;5.638;2023-02-12T10:28:00;7.00;99.90
51783;DHT22;37845;53.196;5.638;2023-02-12T10:33:12;7.00;99.90
51783;DHT22;37845;53.196;5.638;2023-02-12T10:35:42;7.00;99.90
51783;DHT22;37845;53.196;5.638;2023-02-12T10:38:16;7.50;99.90
51783;DHT22;37845;53.196;5.638;2023-02-12T10:40:44;7.00;99.90
51783;DHT22;37845;53.196;5.638;2023-02-12T10:43:10;7.10;99.90
51783;DHT22;37845;53.196;5.638;2023-02-12T10:45:38;7.30;99.90
51783;DHT22;37845;53.196;5.638;2023-02-12T10:48:12;7.00;99.90
51783;DHT22;37845;53.196;5.638;2023-02-12T10:53:19;7.10;99.90
51783;DHT22;37845;53.196;5.638;2023-02-12T10:55:45;7.10;99.90
51783;DHT22;37845;53.196;5.638;2023-02-12T10:58:16;7.20;99.90
51783;DHT22;37845;53.196;5.638;2023-02-12T11:00:43;7.10;99.90
51783;DHT22;37845;53.196;5.638;2023-02-12T11:05:41;7.20;99.90
51783;DHT22;37845;53.196;5.638;2023-02-12T11:08:10;7.20;99.90
51783;DHT22;37845;53.196;5.638;2023-02-12T11:10:50;7.20;99.90
51783;DHT22;37845;53.196;5.638;2023-02-12T11:13:21;7.20;99.90
51783;DHT22;37845;53.196;5.638;2023-02-12T11:15:47;7.20;99.90
51783;DHT22;37845;53.196;5.638;2023-02-12T11:18:23;7.20;99.90
51783;DHT22;37845;53.196;5.638;2023-02-12T11:20:54;7.20;99.90
51783;DHT22;37845;53.196;5.638;2023-02-12T11:23:25;7.20;99.90
51783;DHT22;37845;53.196;5.638;2023-02-12T11:26:00;7.30;99.90
51783;DHT22;37845;53.196;5.638;2023-02-12T11:28:26;7.20;99.90
51783;DHT22;37845;53.196;5.638;2023-02-12T11:31:00;8.50;99.90
51783;DHT22;37845;53.196;5.638;2023-02-12T11:33:27;7.30;99.90
51783;DHT22;37845;53.196;5.638;2023-02-12T11:35:54;7.30;99.90
51783;DHT22;37845;53.196;5.638;2023-02-12T11:38:22;7.30;99.90
51783;DHT22;37845;53.196;5.638;2023-02-12T11:40:48;7.40;99.90
51783;DHT22;37845;53.196;5.638;2023-02-12T11:43:15;7.30;99.90
51783;DHT22;37845;53.196;5.638;2023-02-12T11:45:43;8.00;99.90
51783;DHT22;37845;53.196;5.638;2023-02-12T11:48:20;7.40;99.90
51783;DHT22;37845;53.196;5.638;2023-02-12T11:50:47;7.40;99.90
51783;DHT22;37845;53.196;5.638;2023-02-12T11:53:18;7.40;99.90
51783;DHT22;37845;53.196;5.638;2023-02-12T11:55:50;7.50;99.90
51783;DHT22;37845;53.196;5.638;2023-02-12T11:58:21;7.40;99.90
51783;DHT22;37845;53.196;5.638;2023-02-12T12:06:07;7.50;99.90
51783;DHT22;37845;53.196;5.638;2023-02-12T12:08:39;7.50;99.90
51783;DHT22;37845;53.196;5.638;2023-02-12T12:13:40;7.50;99.90
51783;DHT22;37845;53.196;5.638;2023-02-12T12:16:08;7.80;99.90
51783;DHT22;37845;53.196;5.638;2023-02-12T12:18:55;7.50;99.90
51783;DHT22;37845;53.196;5.638;2023-02-12T12:21:46;7.50;99.90
51783;DHT22;37845;53.196;5.638;2023-02-12T12:24:19;7.50;99.90
51783;DHT22;37845;53.196;5.638;2023-02-12T12:26:48;7.60;99.90
51783;DHT22;37845;53.196;5.638;2023-02-12T12:31:42;7.60;99.90
51783;DHT22;37845;53.196;5.638;2023-02-12T12:34:24;7.60;99.90
51783;DHT22;37845;53.196;5.638;2023-02-12T12:36:59;7.70;99.90
51783;DHT22;37845;53.196;5.638;2023-02-12T12:39:50;7.70;99.90
51783;DHT22;37845;53.196;5.638;2023-02-12T12:42:45;7.60;99.90
51783;DHT22;37845;53.196;5.638;2023-02-12T12:45:22;7.60;99.90
51783;DHT22;37845;53.196;5.638;2023-02-12T12:50:31;7.70;99.90
51783;DHT22;37845;53.196;5.638;2023-02-12T13:16:32;7.80;99.90
51783;DHT22;37845;53.196;5.638;2023-02-12T13:19:06;7.80;99.90
51783;DHT22;37845;53.196;5.638;2023-02-12T13:29:04;7.90;99.90
51783;DHT22;37845;53.196;5.638;2023-02-12T13:31:32;7.90;99.90
51783;DHT22;37845;53.196;5.638;2023-02-12T13:34:01;7.90;99.90
51783;DHT22;37845;53.196;5.638;2023-02-12T13:36:34;7.80;99.90
51783;DHT22;37845;53.196;5.638;2023-02-12T13:55:28;7.90;99.90
51783;DHT22;37845;53.196;5.638;2023-02-12T14:03:12;7.90;99.90
51783;DHT22;37845;53.196;5.638;2023-02-12T14:05:38;7.90;99.90
51783;DHT22;37845;53.196;5.638;2023-02-12T14:08:23;7.90;99.90
51783;DHT22;37845;53.196;5.638;2023-02-12T14:13:55;7.90;99.90
51783;DHT22;37845;53.196;5.638;2023-02-12T14:16:34;7.90;99.90
51783;DHT22;37845;53.196;5.638;2023-02-12T14:21:46;7.90;99.90
51783;DHT22;37845;53.196;5.638;2023-02-12T14:26:56;7.80;99.90
51783;DHT22;37845;53.196;5.638;2023-02-12T14:29:21;7.90;99.90
51783;DHT22;37845;53.196;5.638;2023-02-12T14:31:49;8.60;99.90
51783;DHT22;37845;53.196;5.638;2023-02-12T14:36:41;7.80;99.90
51783;DHT22;37845;53.196;5.638;2023-02-12T14:44:36;7.80;99.90
51783;DHT22;37845;53.196;5.638;2023-02-12T14:47:03;7.80;99.90
51783;DHT22;37845;53.196;5.638;2023-02-12T14:49:44;7.80;99.90
51783;DHT22;37845;53.196;5.638;2023-02-12T14:59:46;7.80;99.90
51783;DHT22;37845;53.196;5.638;2023-02-12T15:02:13;7.80;99.90
51783;DHT22;37845;53.196;5.638;2023-02-12T15:04:42;8.40;99.90
51783;DHT22;37845;53.196;5.638;2023-02-12T15:07:10;7.70;99.90
51783;DHT22;37845;53.196;5.638;2023-02-12T15:09:51;7.70;99.90
51783;DHT22;37845;53.196;5.638;2023-02-12T15:12:29;7.70;99.90
51783;DHT22;37845;53.196;5.638;2023-02-12T15:17:41;7.70;99.90
51783;DHT22;37845;53.196;5.638;2023-02-12T15:20:18;7.70;99.90
51783;DHT22;37845;53.196;5.638;2023-02-12T15:22:45;7.70;99.90
51783;DHT22;37845;53.196;5.638;2023-02-12T15:30:34;7.80;99.90
51783;DHT22;37845;53.196;5.638;2023-02-12T15:33:32;7.90;99.90
51783;DHT22;37845;53.196;5.638;2023-02-12T15:35:58;7.90;99.90
51783;DHT22;37845;53.196;5.638;2023-02-12T15:38:28;8.00;99.90
51783;DHT22;37845;53.196;5.638;2023-02-12T15:40:58;8.00;99.90
51783;DHT22;37845;53.196;5.638;2023-02-12T15:43:25;7.10;99.90
51783;DHT22;37845;53.196;5.638;2023-02-12T15:46:01;7.10;99.90
51783;DHT22;37845;53.196;5.638;2023-02-12T15:48:29;8.10;99.90
51783;DHT22;37845;53.196;5.638;2023-02-12T15:51:09;8.10;99.90
51783;DHT22;37845;53.196;5.638;2023-02-12T15:53:38;8.20;99.90
51783;DHT22;37845;53.196;5.638;2023-02-12T15:56:05;9.30;99.90
51783;DHT22;37845;53.196;5.638;2023-02-12T15:58:40;8.20;99.90
51783;DHT22;37845;53.196;5.638;2023-02-12T16:01:06;8.20;99.90
51783;DHT22;37845;53.196;5.638;2023-02-12T16:03:33;9.20;99.90
51783;DHT22;37845;53.196;5.638;2023-02-12T16:06:02;8.20;99.90
51783;DHT22;37845;53.196;5.638;2023-02-12T16:08:29;8.20;99.90
51783;DHT22;37845;53.196;5.638;2023-02-12T16:10:55;8.20;99.90
51783;DHT22;37845;53.196;5.638;2023-02-12T16:13:32;8.30;99.90
51783;DHT22;37845;53.196;5.638;2023-02-12T16:16:02;8.00;99.90
51783;DHT22;37845;53.196;5.638;2023-02-12T16:18:29;8.10;99.90
51783;DHT22;37845;53.196;5.638;2023-02-12T16:21:04;7.80;99.90
51783;DHT22;37845;53.196;5.638;2023-02-12T16:23:30;7.90;99.90
51783;DHT22;37845;53.196;5.638;2023-02-12T16:25:56;7.80;99.90
51783;DHT22;37845;53.196;5.638;2023-02-12T16:28:28;7.80;99.90
51783;DHT22;37845;53.196;5.638;2023-02-12T16:31:16;7.70;99.90
51783;DHT22;37845;53.196;5.638;2023-02-12T16:38:48;7.70;99.90
51783;DHT22;37845;53.196;5.638;2023-02-12T16:43:43;7.70;99.90
51783;DHT22;37845;53.196;5.638;2023-02-12T16:46:09;7.70;99.90
51783;DHT22;37845;53.196;5.638;2023-02-12T16:48:57;7.70;99.90
51783;DHT22;37845;53.196;5.638;2023-02-12T16:51:23;6.90;99.90
51783;DHT22;37845;53.196;5.638;2023-02-12T16:53:49;7.70;99.90
51783;DHT22;37845;53.196;5.638;2023-02-12T16:56:19;7.50;99.90
51783;DHT22;37845;53.196;5.638;2023-02-12T16:59:07;7.60;99.90
51783;DHT22;37845;53.196;5.638;2023-02-12T17:01:32;7.60;99.90
51783;DHT22;37845;53.196;5.638;2023-02-12T17:03:58;8.40;99.90
51783;DHT22;37845;53.196;5.638;2023-02-12T17:06:25;8.60;99.90
51783;DHT22;37845;53.196;5.638;2023-02-12T17:08:51;8.40;99.90
51783;DHT22;37845;53.196;5.638;2023-02-12T17:11:17;8.00;99.90
51783;DHT22;37845;53.196;5.638;2023-02-12T17:13:45;7.60;99.90
51783;DHT22;37845;53.196;5.638;2023-02-12T17:16:10;7.80;99.90
51783;DHT22;37845;53.196;5.638;2023-02-12T17:18:36;7.60;99.90
51783;DHT22;37845;53.196;5.638;2023-02-12T17:21:45;7.50;99.90
51783;DHT22;37845;53.196;5.638;2023-02-12T17:23:51;7.50;99.90
51783;DHT22;37845;53.196;5.638;2023-02-12T17:26:19;7.60;99.90
51783;DHT22;37845;53.196;5.638;2023-02-12T17:28:45;7.60;99.90
51783;DHT22;37845;53.196;5.638;2023-02-12T17:31:10;8.40;99.90
51783;DHT22;37845;53.196;5.638;2023-02-12T17:33:36;7.60;99.90
51783;DHT22;37845;53.196;5.638;2023-02-12T17:36:05;7.50;99.90
51783;DHT22;37845;53.196;5.638;2023-02-12T17:38:31;7.50;99.90
51783;DHT22;37845;53.196;5.638;2023-02-12T17:40:57;7.40;99.90
51783;DHT22;37845;53.196;5.638;2023-02-12T17:43:22;7.60;99.90
51783;DHT22;37845;53.196;5.638;2023-02-12T17:45:48;7.50;99.90
51783;DHT22;37845;53.196;5.638;2023-02-12T17:48:14;7.50;99.90
51783;DHT22;37845;53.196;5.638;2023-02-12T17:50:41;7.50;99.90
51783;DHT22;37845;53.196;5.638;2023-02-12T17:53:07;7.50;99.90
51783;DHT22;37845;53.196;5.638;2023-02-12T17:55:33;7.50;99.90
51783;DHT22;37845;53.196;5.638;2023-02-12T17:58:01;7.40;99.90
51783;DHT22;37845;53.196;5.638;2023-02-12T18:00:27;7.40;99.90
51783;DHT22;37845;53.196;5.638;2023-02-12T18:02:54;7.40;99.90
51783;DHT22;37845;53.196;5.638;2023-02-12T18:05:19;7.40;99.90
51783;DHT22;37845;53.196;5.638;2023-02-12T18:07:45;7.40;99.90
51783;DHT22;37845;53.196;5.638;2023-02-12T18:10:11;7.40;99.90
51783;DHT22;37845;53.196;5.638;2023-02-12T18:12:36;7.40;99.90
51783;DHT22;37845;53.196;5.638;2023-02-12T18:15:03;7.40;99.90
51783;DHT22;37845;53.196;5.638;2023-02-12T18:17:29;7.40;99.90
51783;DHT22;37845;53.196;5.638;2023-02-12T18:19:54;7.40;99.90
51783;DHT22;37845;53.196;5.638;2023-02-12T18:22:20;7.70;99.90
51783;DHT22;37845;53.196;5.638;2023-02-12T18:24:46;7.40;99.90
51783;DHT22;37845;53.196;5.638;2023-02-12T18:27:12;7.30;99.90
51783;DHT22;37845;53.196;5.638;2023-02-12T18:29:37;7.30;99.90
51783;DHT22;37845;53.196;5.638;2023-02-12T18:32:03;7.30;99.90
51783;DHT22;37845;53.196;5.638;2023-02-12T18:34:29;7.30;99.90
51783;DHT22;37845;53.196;5.638;2023-02-12T18:36:54;8.20;99.90
51783;DHT22;37845;53.196;5.638;2023-02-12T18:39:20;7.30;99.90
51783;DHT22;37845;53.196;5.638;2023-02-12T18:41:46;7.30;99.90
51783;DHT22;37845;53.196;5.638;2023-02-12T18:44:12;7.30;99.90
51783;DHT22;37845;53.196;5.638;2023-02-12T18:46:38;7.30;99.90
51783;DHT22;37845;53.196;5.638;2023-02-12T18:49:03;7.20;99.90
51783;DHT22;37845;53.196;5.638;2023-02-12T18:51:30;7.40;99.90
51783;DHT22;37845;53.196;5.638;2023-02-12T18:54:01;7.20;99.90
51783;DHT22;37845;53.196;5.638;2023-02-12T18:56:28;7.20;99.90